sensor_id;sensor_type;location;lat;lon;timestamp;P1;durP1;ratioP1;P2;durP2;ratioP2
6121;SDS011;3091;51.506;7.672;2023-05-19T00:01:09;16.90;;;16.30;;
6121;SDS011;3091;51.506;7.672;2023-05-19T00:03:37;17.00;;;16.40;;
6121;SDS011;3091;51.506;7.672;2023-05-19T00:06:04;15.87;;;15.37;;
6121;SDS011;3091;51.506;7.672;2023-05-19T00:08:34;15.80;;;15.30;;
6121;SDS011;3091;51.506;7.672;2023-05-19T00:11:02;15.83;;;15.33;;
6121;SDS011;3091;51.506;7.672;2023-05-19T00:13:30;16.13;;;15.63;;
6121;SDS011;3091;51.506;7.672;2023-05-19T00:15:56;16.30;;;15.70;;
6121;SDS011;3091;51.506;7.672;2023-05-19T00:18:22;16.80;;;16.20;;
6121;SDS011;3091;51.506;7.672;2023-05-19T00:20:48;16.47;;;15.87;;
6121;SDS011;3091;51.506;7.672;2023-05-19T00:23:16;16.90;;;16.30;;
6121;SDS011;3091;51.506;7.672;2023-05-19T00:25:42;17.10;;;16.50;;
6121;SDS011;3091;51.506;7.672;2023-05-19T00:28:08;17.00;;;16.40;;
6121;SDS011;3091;51.506;7.672;2023-05-19T00:30:34;17.07;;;16.47;;
6121;SDS011;3091;51.506;7.672;2023-05-19T00:33:00;17.30;;;16.70;;
6121;SDS011;3091;51.506;7.672;2023-05-19T00:35:26;17.50;;;16.90;;
6121;SDS011;3091;51.506;7.672;2023-05-19T00:37:52;17.10;;;16.50;;
6121;SDS011;3091;51.506;7.672;2023-05-19T00:40:18;16.40;;;15.80;;
6121;SDS011;3091;51.506;7.672;2023-05-19T00:42:46;16.40;;;15.80;;
6121;SDS011;3091;51.506;7.672;2023-05-19T00:45:12;16.53;;;15.93;;
6121;SDS011;3091;51.506;7.672;2023-05-19T00:47:38;16.60;;;16.00;;
6121;SDS011;3091;51.506;7.672;2023-05-19T00:50:07;16.80;;;16.20;;
6121;SDS011;3091;51.506;7.672;2023-05-19T00:52:33;16.30;;;15.70;;
6121;SDS011;3091;51.506;7.672;2023-05-19T00:54:59;16.40;;;15.80;;
6121;SDS011;3091;51.506;7.672;2023-05-19T00:57:25;16.73;;;16.13;;
6121;SDS011;3091;51.506;7.672;2023-05-19T00:59:51;16.90;;;16.30;;
6121;SDS011;3091;51.506;7.672;2023-05-19T01:02:17;16.90;;;16.30;;
6121;SDS011;3091;51.506;7.672;2023-05-19T01:04:44;16.80;;;16.20;;
6121;SDS011;3091;51.506;7.672;2023-05-19T01:07:10;17.03;;;16.43;;
6121;SDS011;3091;51.506;7.672;2023-05-19T01:09:37;17.40;;;16.70;;
6121;SDS011;3091;51.506;7.672;2023-05-19T01:12:03;18.40;;;17.80;;
6121;SDS011;3091;51.506;7.672;2023-05-19T01:14:29;17.13;;;16.53;;
6121;SDS011;3091;51.506;7.672;2023-05-19T01:17:13;17.30;;;16.70;;
6121;SDS011;3091;51.506;7.672;2023-05-19T01:25:11;16.93;;;16.33;;
6121;SDS011;3091;51.506;7.672;2023-05-19T01:32:53;16.30;;;15.80;;
6121;SDS011;3091;51.506;7.672;2023-05-19T01:35:21;16.77;;;16.23;;
6121;SDS011;3091;51.506;7.672;2023-05-19T01:37:48;16.60;;;16.10;;
6121;SDS011;3091;51.506;7.672;2023-05-19T01:40:16;17.30;;;16.70;;
6121;SDS011;3091;51.506;7.672;2023-05-19T01:42:42;18.00;;;17.30;;
6121;SDS011;3091;51.506;7.672;2023-05-19T01:45:09;16.97;;;16.37;;
6121;SDS011;3091;51.506;7.672;2023-05-19T01:47:39;16.40;;;15.90;;
6121;SDS011;3091;51.506;7.672;2023-05-19T01:50:05;16.30;;;15.80;;
6121;SDS011;3091;51.506;7.672;2023-05-19T01:52:32;16.20;;;15.70;;
6121;SDS011;3091;51.506;7.672;2023-05-19T01:54:58;17.67;;;16.97;;
6121;SDS011;3091;51.506;7.672;2023-05-19T02:02:25;17.23;;;16.63;;
6121;SDS011;3091;51.506;7.672;2023-05-19T02:04:58;17.13;;;16.53;;
6121;SDS011;3091;51.506;7.672;2023-05-19T02:10:05;17.00;;;16.40;;
6121;SDS011;3091;51.506;7.672;2023-05-19T02:12:35;17.90;;;17.30;;
6121;SDS011;3091;51.506;7.672;2023-05-19T02:17:32;17.70;;;17.00;;
6121;SDS011;3091;51.506;7.672;2023-05-19T02:20:00;17.50;;;16.80;;
6121;SDS011;3091;51.506;7.672;2023-05-19T02:22:26;17.70;;;17.00;;
6121;SDS011;3091;51.506;7.672;2023-05-19T02:24:52;17.90;;;17.20;;
6121;SDS011;3091;51.506;7.672;2023-05-19T02:27:20;18.27;;;17.57;;
6121;SDS011;3091;51.506;7.672;2023-05-19T02:29:46;18.47;;;17.77;;
6121;SDS011;3091;51.506;7.672;2023-05-19T02:32:13;18.50;;;17.80;;
6121;SDS011;3091;51.506;7.672;2023-05-19T02:34:39;18.60;;;17.80;;
6121;SDS011;3091;51.506;7.672;2023-05-19T02:37:12;18.20;;;17.50;;
6121;SDS011;3091;51.506;7.672;2023-05-19T02:39:39;17.73;;;17.03;;
6121;SDS011;3091;51.506;7.672;2023-05-19T02:42:05;19.10;;;18.40;;
6121;SDS011;3091;51.506;7.672;2023-05-19T02:44:31;19.20;;;18.50;;
6121;SDS011;3091;51.506;7.672;2023-05-19T02:46:57;18.63;;;18.03;;
6121;SDS011;3091;51.506;7.672;2023-05-19T02:49:23;18.70;;;18.00;;
6121;SDS011;3091;51.506;7.672;2023-05-19T02:51:49;18.73;;;18.03;;
6121;SDS011;3091;51.506;7.672;2023-05-19T02:54:15;18.17;;;17.47;;
6121;SDS011;3091;51.506;7.672;2023-05-19T02:56:41;17.70;;;17.00;;
6121;SDS011;3091;51.506;7.672;2023-05-19T02:59:07;18.23;;;17.50;;
6121;SDS011;3091;51.506;7.672;2023-05-19T03:01:33;18.00;;;17.30;;
6121;SDS011;3091;51.506;7.672;2023-05-19T03:04:01;17.70;;;17.00;;
6121;SDS011;3091;51.506;7.672;2023-05-19T03:06:27;18.10;;;17.30;;
6121;SDS011;3091;51.506;7.672;2023-05-19T03:08:53;17.93;;;17.23;;
6121;SDS011;3091;51.506;7.672;2023-05-19T03:11:19;17.80;;;17.10;;
6121;SDS011;3091;51.506;7.672;2023-05-19T03:13:49;17.30;;;16.60;;
6121;SDS011;3091;51.506;7.672;2023-05-19T03:16:15;17.23;;;16.53;;
6121;SDS011;3091;51.506;7.672;2023-05-19T03:18:41;17.60;;;16.90;;
6121;SDS011;3091;51.506;7.672;2023-05-19T03:21:07;17.50;;;16.80;;
6121;SDS011;3091;51.506;7.672;2023-05-19T03:23:33;17.27;;;16.57;;
6121;SDS011;3091;51.506;7.672;2023-05-19T03:25:59;17.47;;;16.77;;
6121;SDS011;3091;51.506;7.672;2023-05-19T03:28:25;17.10;;;16.40;;
6121;SDS011;3091;51.506;7.672;2023-05-19T03:30:51;17.27;;;16.57;;
6121;SDS011;3091;51.506;7.672;2023-05-19T03:33:17;17.20;;;16.50;;
6121;SDS011;3091;51.506;7.672;2023-05-19T03:35:44;17.30;;;16.60;;
6121;SDS011;3091;51.506;7.672;2023-05-19T03:38:10;17.40;;;16.70;;
6121;SDS011;3091;51.506;7.672;2023-05-19T03:40:36;18.00;;;17.20;;
6121;SDS011;3091;51.506;7.672;2023-05-19T03:43:04;18.00;;;17.20;;
6121;SDS011;3091;51.506;7.672;2023-05-19T03:45:31;16.90;;;16.20;;
6121;SDS011;3091;51.506;7.672;2023-05-19T03:47:57;16.80;;;16.10;;
6121;SDS011;3091;51.506;7.672;2023-05-19T03:50:23;16.80;;;16.10;;
6121;SDS011;3091;51.506;7.672;2023-05-19T03:52:49;16.53;;;15.83;;
6121;SDS011;3091;51.506;7.672;2023-05-19T03:55:15;16.50;;;15.80;;
6121;SDS011;3091;51.506;7.672;2023-05-19T03:57:44;16.40;;;15.70;;
6121;SDS011;3091;51.506;7.672;2023-05-19T04:00:12;16.30;;;15.60;;
6121;SDS011;3091;51.506;7.672;2023-05-19T04:02:38;16.50;;;15.80;;
6121;SDS011;3091;51.506;7.672;2023-05-19T04:05:05;16.53;;;15.83;;
6121;SDS011;3091;51.506;7.672;2023-05-19T04:07:31;16.57;;;15.87;;
6121;SDS011;3091;51.506;7.672;2023-05-19T04:09:57;16.90;;;16.20;;
6121;SDS011;3091;51.506;7.672;2023-05-19T04:12:23;17.10;;;16.40;;
6121;SDS011;3091;51.506;7.672;2023-05-19T04:14:49;17.83;;;17.13;;
6121;SDS011;3091;51.506;7.672;2023-05-19T04:17:15;18.10;;;17.30;;
6121;SDS011;3091;51.506;7.672;2023-05-19T04:19:41;19.40;;;18.60;;
6121;SDS011;3091;51.506;7.672;2023-05-19T04:22:07;19.30;;;18.60;;
6121;SDS011;3091;51.506;7.672;2023-05-19T04:24:36;19.70;;;18.90;;
6121;SDS011;3091;51.506;7.672;2023-05-19T04:27:02;20.50;;;19.70;;
6121;SDS011;3091;51.506;7.672;2023-05-19T04:29:28;21.20;;;20.40;;
6121;SDS011;3091;51.506;7.672;2023-05-19T04:31:55;19.20;;;18.40;;
6121;SDS011;3091;51.506;7.672;2023-05-19T04:34:24;19.70;;;18.90;;
6121;SDS011;3091;51.506;7.672;2023-05-19T04:36:52;19.40;;;18.60;;
6121;SDS011;3091;51.506;7.672;2023-05-19T04:39:19;20.60;;;19.70;;
6121;SDS011;3091;51.506;7.672;2023-05-19T04:41:45;22.37;;;21.57;;
6121;SDS011;3091;51.506;7.672;2023-05-19T04:44:14;26.20;;;25.20;;
6121;SDS011;3091;51.506;7.672;2023-05-19T04:46:44;29.20;;;28.10;;
6121;SDS011;3091;51.506;7.672;2023-05-19T04:49:10;33.17;;;31.97;;
6121;SDS011;3091;51.506;7.672;2023-05-19T04:51:38;32.77;;;31.57;;
6121;SDS011;3091;51.506;7.672;2023-05-19T04:54:06;30.13;;;28.93;;
6121;SDS011;3091;51.506;7.672;2023-05-19T04:56:32;24.23;;;23.33;;
6121;SDS011;3091;51.506;7.672;2023-05-19T04:58:58;19.00;;;18.30;;
6121;SDS011;3091;51.506;7.672;2023-05-19T05:01:24;15.83;;;15.33;;
6121;SDS011;3091;51.506;7.672;2023-05-19T05:03:51;12.03;;;11.63;;
6121;SDS011;3091;51.506;7.672;2023-05-19T05:06:19;10.97;;;10.67;;
6121;SDS011;3091;51.506;7.672;2023-05-19T05:08:46;10.40;;;10.10;;
6121;SDS011;3091;51.506;7.672;2023-05-19T05:11:15;9.90;;;9.60;;
6121;SDS011;3091;51.506;7.672;2023-05-19T05:13:41;11.90;;;11.50;;
6121;SDS011;3091;51.506;7.672;2023-05-19T05:16:10;12.10;;;11.70;;
6121;SDS011;3091;51.506;7.672;2023-05-19T05:18:36;11.80;;;11.40;;
6121;SDS011;3091;51.506;7.672;2023-05-19T05:21:02;10.20;;;9.90;;
6121;SDS011;3091;51.506;7.672;2023-05-19T05:23:31;9.73;;;9.43;;
6121;SDS011;3091;51.506;7.672;2023-05-19T05:25:57;10.40;;;10.10;;
6121;SDS011;3091;51.506;7.672;2023-05-19T05:28:23;9.80;;;9.50;;
6121;SDS011;3091;51.506;7.672;2023-05-19T05:30:49;10.20;;;9.90;;
6121;SDS011;3091;51.506;7.672;2023-05-19T05:33:18;10.50;;;10.10;;
6121;SDS011;3091;51.506;7.672;2023-05-19T05:35:46;12.20;;;11.80;;
6121;SDS011;3091;51.506;7.672;2023-05-19T05:38:13;11.57;;;11.17;;
6121;SDS011;3091;51.506;7.672;2023-05-19T05:40:39;10.50;;;10.20;;
6121;SDS011;3091;51.506;7.672;2023-05-19T05:43:05;9.80;;;9.50;;
6121;SDS011;3091;51.506;7.672;2023-05-19T05:45:31;9.90;;;9.60;;
6121;SDS011;3091;51.506;7.672;2023-05-19T05:48:00;9.80;;;9.50;;
6121;SDS011;3091;51.506;7.672;2023-05-19T05:50:26;9.90;;;9.60;;
6121;SDS011;3091;51.506;7.672;2023-05-19T05:52:52;10.60;;;10.30;;
6121;SDS011;3091;51.506;7.672;2023-05-19T05:55:18;10.90;;;10.60;;
6121;SDS011;3091;51.506;7.672;2023-05-19T05:57:44;11.63;;;11.23;;
6121;SDS011;3091;51.506;7.672;2023-05-19T06:00:12;12.20;;;11.80;;
6121;SDS011;3091;51.506;7.672;2023-05-19T06:02:43;11.80;;;11.40;;
6121;SDS011;3091;51.506;7.672;2023-05-19T06:05:10;10.40;;;10.10;;
6121;SDS011;3091;51.506;7.672;2023-05-19T06:07:37;10.77;;;10.37;;
6121;SDS011;3091;51.506;7.672;2023-05-19T06:10:03;13.40;;;12.43;;
6121;SDS011;3091;51.506;7.672;2023-05-19T06:12:29;10.30;;;10.00;;
6121;SDS011;3091;51.506;7.672;2023-05-19T06:14:55;10.03;;;9.73;;
6121;SDS011;3091;51.506;7.672;2023-05-19T06:17:21;10.33;;;10.03;;
6121;SDS011;3091;51.506;7.672;2023-05-19T06:19:47;10.30;;;10.00;;
6121;SDS011;3091;51.506;7.672;2023-05-19T06:22:13;10.63;;;10.33;;
6121;SDS011;3091;51.506;7.672;2023-05-19T06:24:39;10.70;;;10.40;;
6121;SDS011;3091;51.506;7.672;2023-05-19T06:27:05;11.93;;;11.53;;
6121;SDS011;3091;51.506;7.672;2023-05-19T06:29:31;12.43;;;12.03;;
6121;SDS011;3091;51.506;7.672;2023-05-19T06:31:57;11.90;;;11.50;;
6121;SDS011;3091;51.506;7.672;2023-05-19T06:34:24;12.57;;;12.17;;
6121;SDS011;3091;51.506;7.672;2023-05-19T06:36:50;12.00;;;11.60;;
6121;SDS011;3091;51.506;7.672;2023-05-19T06:39:16;12.10;;;11.70;;
6121;SDS011;3091;51.506;7.672;2023-05-19T06:41:42;12.20;;;11.80;;
6121;SDS011;3091;51.506;7.672;2023-05-19T06:44:08;12.40;;;12.00;;
6121;SDS011;3091;51.506;7.672;2023-05-19T06:46:34;12.00;;;11.60;;
6121;SDS011;3091;51.506;7.672;2023-05-19T06:49:00;12.00;;;11.60;;
6121;SDS011;3091;51.506;7.672;2023-05-19T06:51:26;12.30;;;11.90;;
6121;SDS011;3091;51.506;7.672;2023-05-19T06:53:52;11.60;;;11.20;;
6121;SDS011;3091;51.506;7.672;2023-05-19T06:56:18;10.83;;;10.43;;
6121;SDS011;3091;51.506;7.672;2023-05-19T06:58:46;11.07;;;10.67;;
6121;SDS011;3091;51.506;7.672;2023-05-19T07:01:12;10.30;;;10.00;;
6121;SDS011;3091;51.506;7.672;2023-05-19T07:03:38;10.50;;;10.20;;
6121;SDS011;3091;51.506;7.672;2023-05-19T07:06:04;11.70;;;11.30;;
6121;SDS011;3091;51.506;7.672;2023-05-19T07:08:30;11.00;;;10.70;;
6121;SDS011;3091;51.506;7.672;2023-05-19T07:10:56;10.60;;;10.20;;
6121;SDS011;3091;51.506;7.672;2023-05-19T07:13:22;10.20;;;9.90;;
6121;SDS011;3091;51.506;7.672;2023-05-19T07:15:48;12.20;;;11.80;;
6121;SDS011;3091;51.506;7.672;2023-05-19T07:18:16;11.00;;;10.60;;
6121;SDS011;3091;51.506;7.672;2023-05-19T07:20:42;9.70;;;9.40;;
6121;SDS011;3091;51.506;7.672;2023-05-19T07:23:08;10.40;;;10.10;;
6121;SDS011;3091;51.506;7.672;2023-05-19T07:25:34;12.33;;;11.93;;
6121;SDS011;3091;51.506;7.672;2023-05-19T07:28:00;12.30;;;11.90;;
6121;SDS011;3091;51.506;7.672;2023-05-19T07:30:26;10.40;;;10.10;;
6121;SDS011;3091;51.506;7.672;2023-05-19T07:32:53;11.37;;;10.97;;
6121;SDS011;3091;51.506;7.672;2023-05-19T07:35:19;10.90;;;10.50;;
6121;SDS011;3091;51.506;7.672;2023-05-19T07:37:50;12.07;;;11.67;;
6121;SDS011;3091;51.506;7.672;2023-05-19T07:40:16;12.60;;;12.10;;
6121;SDS011;3091;51.506;7.672;2023-05-19T07:42:42;13.57;;;13.07;;
6121;SDS011;3091;51.506;7.672;2023-05-19T07:45:08;11.00;;;10.70;;
6121;SDS011;3091;51.506;7.672;2023-05-19T07:47:35;11.60;;;11.20;;
6121;SDS011;3091;51.506;7.672;2023-05-19T07:50:01;10.87;;;10.57;;
6121;SDS011;3091;51.506;7.672;2023-05-19T07:52:27;11.57;;;11.17;;
6121;SDS011;3091;51.506;7.672;2023-05-19T07:54:53;13.67;;;13.03;;
6121;SDS011;3091;51.506;7.672;2023-05-19T07:57:19;13.27;;;12.77;;
6121;SDS011;3091;51.506;7.672;2023-05-19T07:59:46;12.20;;;11.80;;
6121;SDS011;3091;51.506;7.672;2023-05-19T08:02:12;13.20;;;12.70;;
6121;SDS011;3091;51.506;7.672;2023-05-19T08:04:38;12.20;;;11.80;;
6121;SDS011;3091;51.506;7.672;2023-05-19T08:07:07;12.90;;;12.40;;
6121;SDS011;3091;51.506;7.672;2023-05-19T08:09:33;12.70;;;12.30;;
6121;SDS011;3091;51.506;7.672;2023-05-19T08:11:59;12.30;;;11.90;;
6121;SDS011;3091;51.506;7.672;2023-05-19T08:14:25;12.70;;;12.30;;
6121;SDS011;3091;51.506;7.672;2023-05-19T08:16:52;12.50;;;12.10;;
6121;SDS011;3091;51.506;7.672;2023-05-19T08:19:18;12.00;;;11.60;;
6121;SDS011;3091;51.506;7.672;2023-05-19T08:21:44;11.77;;;11.37;;
6121;SDS011;3091;51.506;7.672;2023-05-19T08:24:10;11.30;;;10.90;;
6121;SDS011;3091;51.506;7.672;2023-05-19T08:26:38;11.30;;;10.90;;
6121;SDS011;3091;51.506;7.672;2023-05-19T08:29:04;11.43;;;11.03;;
6121;SDS011;3091;51.506;7.672;2023-05-19T08:31:30;11.40;;;11.00;;
6121;SDS011;3091;51.506;7.672;2023-05-19T08:33:56;11.10;;;10.77;;
6121;SDS011;3091;51.506;7.672;2023-05-19T08:36:22;11.50;;;11.10;;
6121;SDS011;3091;51.506;7.672;2023-05-19T08:38:57;12.70;;;12.30;;
6121;SDS011;3091;51.506;7.672;2023-05-19T08:41:23;12.60;;;12.20;;
6121;SDS011;3091;51.506;7.672;2023-05-19T08:43:50;13.33;;;12.80;;
6121;SDS011;3091;51.506;7.672;2023-05-19T08:46:16;12.20;;;11.60;;
6121;SDS011;3091;51.506;7.672;2023-05-19T08:48:43;11.60;;;11.10;;
6121;SDS011;3091;51.506;7.672;2023-05-19T08:51:13;13.17;;;12.00;;
6121;SDS011;3091;51.506;7.672;2023-05-19T08:53:44;12.10;;;11.60;;
6121;SDS011;3091;51.506;7.672;2023-05-19T08:58:39;13.30;;;12.03;;
6121;SDS011;3091;51.506;7.672;2023-05-19T09:01:07;12.77;;;12.37;;
6121;SDS011;3091;51.506;7.672;2023-05-19T09:03:34;12.63;;;12.23;;
6121;SDS011;3091;51.506;7.672;2023-05-19T09:06:03;12.83;;;12.33;;
6121;SDS011;3091;51.506;7.672;2023-05-19T09:08:32;11.53;;;11.13;;
6121;SDS011;3091;51.506;7.672;2023-05-19T09:10:58;11.60;;;11.20;;
6121;SDS011;3091;51.506;7.672;2023-05-19T09:13:25;11.87;;;11.47;;
6121;SDS011;3091;51.506;7.672;2023-05-19T09:15:51;12.77;;;12.23;;
6121;SDS011;3091;51.506;7.672;2023-05-19T09:18:20;11.40;;;11.00;;
6121;SDS011;3091;51.506;7.672;2023-05-19T09:20:46;11.20;;;10.80;;
6121;SDS011;3091;51.506;7.672;2023-05-19T09:23:12;12.63;;;12.23;;
6121;SDS011;3091;51.506;7.672;2023-05-19T09:28:12;13.13;;;12.63;;
6121;SDS011;3091;51.506;7.672;2023-05-19T09:30:38;12.90;;;12.50;;
6121;SDS011;3091;51.506;7.672;2023-05-19T09:33:04;12.70;;;12.30;;
6121;SDS011;3091;51.506;7.672;2023-05-19T09:35:33;12.90;;;12.50;;
6121;SDS011;3091;51.506;7.672;2023-05-19T09:38:00;13.10;;;12.60;;
6121;SDS011;3091;51.506;7.672;2023-05-19T09:40:27;13.00;;;12.50;;
6121;SDS011;3091;51.506;7.672;2023-05-19T09:42:53;12.83;;;12.40;;
6121;SDS011;3091;51.506;7.672;2023-05-19T09:45:19;12.07;;;11.67;;
6121;SDS011;3091;51.506;7.672;2023-05-19T09:47:45;11.00;;;10.60;;
6121;SDS011;3091;51.506;7.672;2023-05-19T09:50:11;11.67;;;11.27;;
6121;SDS011;3091;51.506;7.672;2023-05-19T09:52:38;11.10;;;10.80;;
6121;SDS011;3091;51.506;7.672;2023-05-19T09:55:05;11.93;;;11.53;;
6121;SDS011;3091;51.506;7.672;2023-05-19T09:57:34;12.97;;;12.53;;
6121;SDS011;3091;51.506;7.672;2023-05-19T10:00:04;12.40;;;12.00;;
6121;SDS011;3091;51.506;7.672;2023-05-19T10:02:40;11.50;;;11.00;;
6121;SDS011;3091;51.506;7.672;2023-05-19T10:05:07;12.67;;;12.17;;
6121;SDS011;3091;51.506;7.672;2023-05-19T10:07:34;11.87;;;11.37;;
6121;SDS011;3091;51.506;7.672;2023-05-19T10:10:01;12.50;;;12.10;;
6121;SDS011;3091;51.506;7.672;2023-05-19T10:12:27;12.00;;;11.60;;
6121;SDS011;3091;51.506;7.672;2023-05-19T10:14:53;11.60;;;11.20;;
6121;SDS011;3091;51.506;7.672;2023-05-19T10:17:20;11.53;;;11.13;;
6121;SDS011;3091;51.506;7.672;2023-05-19T10:19:46;12.17;;;11.70;;
6121;SDS011;3091;51.506;7.672;2023-05-19T10:22:15;12.77;;;12.30;;
6121;SDS011;3091;51.506;7.672;2023-05-19T10:24:40;12.50;;;12.10;;
6121;SDS011;3091;51.506;7.672;2023-05-19T10:27:10;13.27;;;12.77;;
6121;SDS011;3091;51.506;7.672;2023-05-19T10:29:40;12.27;;;11.87;;
6121;SDS011;3091;51.506;7.672;2023-05-19T10:32:09;11.50;;;11.10;;
6121;SDS011;3091;51.506;7.672;2023-05-19T10:34:55;11.70;;;11.30;;
6121;SDS011;3091;51.506;7.672;2023-05-19T10:39:52;13.23;;;12.20;;
6121;SDS011;3091;51.506;7.672;2023-05-19T10:47:33;13.50;;;12.90;;
6121;SDS011;3091;51.506;7.672;2023-05-19T10:49:59;13.20;;;12.70;;
6121;SDS011;3091;51.506;7.672;2023-05-19T10:52:25;12.83;;;12.43;;
6121;SDS011;3091;51.506;7.672;2023-05-19T10:54:53;12.50;;;12.10;;
6121;SDS011;3091;51.506;7.672;2023-05-19T10:57:26;13.00;;;12.50;;
6121;SDS011;3091;51.506;7.672;2023-05-19T10:59:52;13.27;;;12.77;;
6121;SDS011;3091;51.506;7.672;2023-05-19T11:02:39;13.20;;;12.60;;
6121;SDS011;3091;51.506;7.672;2023-05-19T11:05:06;14.33;;;13.73;;
6121;SDS011;3091;51.506;7.672;2023-05-19T11:07:33;13.70;;;13.10;;
6121;SDS011;3091;51.506;7.672;2023-05-19T11:10:02;12.83;;;12.43;;
6121;SDS011;3091;51.506;7.672;2023-05-19T11:12:37;12.00;;;11.60;;
6121;SDS011;3091;51.506;7.672;2023-05-19T11:15:05;12.77;;;12.27;;
6121;SDS011;3091;51.506;7.672;2023-05-19T11:17:32;12.60;;;11.90;;
6121;SDS011;3091;51.506;7.672;2023-05-19T11:19:59;11.83;;;11.43;;
6121;SDS011;3091;51.506;7.672;2023-05-19T11:22:26;11.83;;;11.43;;
6121;SDS011;3091;51.506;7.672;2023-05-19T11:24:55;11.60;;;11.20;;
6121;SDS011;3091;51.506;7.672;2023-05-19T11:27:24;11.60;;;11.20;;
6121;SDS011;3091;51.506;7.672;2023-05-19T11:29:51;12.00;;;11.60;;
6121;SDS011;3091;51.506;7.672;2023-05-19T11:32:20;13.37;;;12.87;;
6121;SDS011;3091;51.506;7.672;2023-05-19T11:34:47;13.13;;;12.73;;
6121;SDS011;3091;51.506;7.672;2023-05-19T11:37:14;13.97;;;13.37;;
6121;SDS011;3091;51.506;7.672;2023-05-19T11:39:40;13.37;;;12.87;;
6121;SDS011;3091;51.506;7.672;2023-05-19T11:42:07;13.47;;;12.97;;
6121;SDS011;3091;51.506;7.672;2023-05-19T11:44:35;12.87;;;12.47;;
6121;SDS011;3091;51.506;7.672;2023-05-19T11:47:02;12.23;;;11.83;;
6121;SDS011;3091;51.506;7.672;2023-05-19T11:49:28;11.97;;;11.57;;
6121;SDS011;3091;51.506;7.672;2023-05-19T11:51:54;12.10;;;11.70;;
6121;SDS011;3091;51.506;7.672;2023-05-19T11:54:20;11.80;;;11.40;;
6121;SDS011;3091;51.506;7.672;2023-05-19T11:56:46;11.90;;;11.40;;
6121;SDS011;3091;51.506;7.672;2023-05-19T11:59:15;12.90;;;12.50;;
6121;SDS011;3091;51.506;7.672;2023-05-19T12:01:41;13.27;;;12.77;;
6121;SDS011;3091;51.506;7.672;2023-05-19T12:04:07;13.13;;;12.63;;
6121;SDS011;3091;51.506;7.672;2023-05-19T12:06:34;13.70;;;13.10;;
6121;SDS011;3091;51.506;7.672;2023-05-19T12:09:01;13.50;;;13.00;;
6121;SDS011;3091;51.506;7.672;2023-05-19T12:11:30;14.20;;;13.70;;
6121;SDS011;3091;51.506;7.672;2023-05-19T12:13:58;13.23;;;12.80;;
6121;SDS011;3091;51.506;7.672;2023-05-19T12:16:32;13.50;;;13.00;;
6121;SDS011;3091;51.506;7.672;2023-05-19T12:18:58;13.57;;;13.00;;
6121;SDS011;3091;51.506;7.672;2023-05-19T12:21:24;13.90;;;13.40;;
6121;SDS011;3091;51.506;7.672;2023-05-19T12:23:50;13.67;;;13.13;;
6121;SDS011;3091;51.506;7.672;2023-05-19T12:26:16;13.00;;;12.50;;
6121;SDS011;3091;51.506;7.672;2023-05-19T12:28:44;12.87;;;12.43;;
6121;SDS011;3091;51.506;7.672;2023-05-19T12:31:10;12.70;;;12.30;;
6121;SDS011;3091;51.506;7.672;2023-05-19T12:33:39;12.50;;;12.10;;
6121;SDS011;3091;51.506;7.672;2023-05-19T12:36:05;12.80;;;12.40;;
6121;SDS011;3091;51.506;7.672;2023-05-19T12:38:32;11.87;;;11.47;;
6121;SDS011;3091;51.506;7.672;2023-05-19T12:41:01;12.17;;;11.77;;
6121;SDS011;3091;51.506;7.672;2023-05-19T12:43:27;11.60;;;11.20;;
6121;SDS011;3091;51.506;7.672;2023-05-19T12:45:53;12.00;;;11.60;;
6121;SDS011;3091;51.506;7.672;2023-05-19T12:48:22;12.30;;;11.90;;
6121;SDS011;3091;51.506;7.672;2023-05-19T12:50:50;12.17;;;11.77;;
6121;SDS011;3091;51.506;7.672;2023-05-19T12:53:17;12.60;;;12.20;;
6121;SDS011;3091;51.506;7.672;2023-05-19T12:55:44;13.10;;;12.70;;
6121;SDS011;3091;51.506;7.672;2023-05-19T12:58:10;13.50;;;13.00;;
6121;SDS011;3091;51.506;7.672;2023-05-19T13:00:40;13.20;;;12.67;;
6121;SDS011;3091;51.506;7.672;2023-05-19T13:03:08;12.80;;;12.40;;
6121;SDS011;3091;51.506;7.672;2023-05-19T13:05:40;13.30;;;12.90;;
6121;SDS011;3091;51.506;7.672;2023-05-19T13:08:11;14.03;;;13.40;;
6121;SDS011;3091;51.506;7.672;2023-05-19T13:10:37;13.17;;;12.77;;
6121;SDS011;3091;51.506;7.672;2023-05-19T13:13:04;12.80;;;12.40;;
6121;SDS011;3091;51.506;7.672;2023-05-19T13:15:31;13.10;;;12.70;;
6121;SDS011;3091;51.506;7.672;2023-05-19T13:18:02;13.60;;;13.10;;
6121;SDS011;3091;51.506;7.672;2023-05-19T13:20:30;13.47;;;12.97;;
6121;SDS011;3091;51.506;7.672;2023-05-19T13:22:57;13.90;;;13.30;;
6121;SDS011;3091;51.506;7.672;2023-05-19T13:25:23;12.57;;;12.17;;
6121;SDS011;3091;51.506;7.672;2023-05-19T13:27:49;11.80;;;11.40;;
6121;SDS011;3091;51.506;7.672;2023-05-19T13:30:16;11.57;;;11.17;;
6121;SDS011;3091;51.506;7.672;2023-05-19T13:32:43;12.30;;;11.60;;
6121;SDS011;3091;51.506;7.672;2023-05-19T13:35:09;11.80;;;11.40;;
6121;SDS011;3091;51.506;7.672;2023-05-19T13:37:35;13.00;;;12.60;;
6121;SDS011;3091;51.506;7.672;2023-05-19T13:40:03;13.20;;;12.70;;
6121;SDS011;3091;51.506;7.672;2023-05-19T13:42:30;12.80;;;12.40;;
6121;SDS011;3091;51.506;7.672;2023-05-19T13:44:56;12.00;;;11.60;;
6121;SDS011;3091;51.506;7.672;2023-05-19T13:47:22;14.47;;;12.03;;
6121;SDS011;3091;51.506;7.672;2023-05-19T13:49:49;12.10;;;11.70;;
6121;SDS011;3091;51.506;7.672;2023-05-19T13:52:15;11.70;;;11.30;;
6121;SDS011;3091;51.506;7.672;2023-05-19T13:54:41;11.83;;;11.43;;
6121;SDS011;3091;51.506;7.672;2023-05-19T13:57:07;13.47;;;12.97;;
6121;SDS011;3091;51.506;7.672;2023-05-19T13:59:33;13.67;;;13.07;;
6121;SDS011;3091;51.506;7.672;2023-05-19T14:02:00;13.90;;;13.40;;
6121;SDS011;3091;51.506;7.672;2023-05-19T14:04:30;13.70;;;13.20;;
6121;SDS011;3091;51.506;7.672;2023-05-19T14:06:56;12.30;;;11.90;;
6121;SDS011;3091;51.506;7.672;2023-05-19T14:09:22;11.30;;;11.00;;
6121;SDS011;3091;51.506;7.672;2023-05-19T14:11:48;12.57;;;11.83;;
6121;SDS011;3091;51.506;7.672;2023-05-19T14:14:14;12.00;;;11.60;;
6121;SDS011;3091;51.506;7.672;2023-05-19T14:16:41;12.03;;;11.63;;
6121;SDS011;3091;51.506;7.672;2023-05-19T14:19:07;12.90;;;12.50;;
6121;SDS011;3091;51.506;7.672;2023-05-19T14:21:33;14.50;;;13.90;;
6121;SDS011;3091;51.506;7.672;2023-05-19T14:24:03;13.30;;;12.80;;
6121;SDS011;3091;51.506;7.672;2023-05-19T14:26:29;13.70;;;13.20;;
6121;SDS011;3091;51.506;7.672;2023-05-19T14:28:57;12.90;;;12.50;;
6121;SDS011;3091;51.506;7.672;2023-05-19T14:31:23;13.00;;;12.60;;
6121;SDS011;3091;51.506;7.672;2023-05-19T14:33:50;13.10;;;12.70;;
6121;SDS011;3091;51.506;7.672;2023-05-19T14:36:16;13.23;;;12.83;;
6121;SDS011;3091;51.506;7.672;2023-05-19T14:38:42;12.80;;;12.20;;
6121;SDS011;3091;51.506;7.672;2023-05-19T14:41:08;12.00;;;11.50;;
6121;SDS011;3091;51.506;7.672;2023-05-19T14:43:34;12.43;;;11.93;;
6121;SDS011;3091;51.506;7.672;2023-05-19T14:46:00;11.57;;;11.17;;
6121;SDS011;3091;51.506;7.672;2023-05-19T14:48:26;11.53;;;11.13;;
6121;SDS011;3091;51.506;7.672;2023-05-19T14:50:52;11.50;;;11.10;;
6121;SDS011;3091;51.506;7.672;2023-05-19T14:53:18;13.00;;;12.60;;
6121;SDS011;3091;51.506;7.672;2023-05-19T14:55:46;12.40;;;12.00;;
6121;SDS011;3091;51.506;7.672;2023-05-19T14:58:13;12.20;;;11.80;;
6121;SDS011;3091;51.506;7.672;2023-05-19T15:00:41;11.87;;;11.47;;
6121;SDS011;3091;51.506;7.672;2023-05-19T15:03:07;11.80;;;11.40;;
6121;SDS011;3091;51.506;7.672;2023-05-19T15:05:33;11.93;;;11.53;;
6121;SDS011;3091;51.506;7.672;2023-05-19T15:08:01;11.80;;;11.40;;
6121;SDS011;3091;51.506;7.672;2023-05-19T15:10:27;11.90;;;11.50;;
6121;SDS011;3091;51.506;7.672;2023-05-19T15:12:53;13.50;;;13.00;;
6121;SDS011;3091;51.506;7.672;2023-05-19T15:15:21;13.13;;;12.63;;
6121;SDS011;3091;51.506;7.672;2023-05-19T15:17:49;13.13;;;12.63;;
6121;SDS011;3091;51.506;7.672;2023-05-19T15:20:15;12.80;;;12.40;;